createdAt,value
2022-09-10T00:02:00.059Z,26.88
2022-09-10T00:05:18.903Z,30.25
2022-09-10T00:08:35.211Z,30.75
2022-09-10T00:11:52.537Z,28.85
2022-09-10T00:15:09.424Z,29.43
2022-09-10T00:18:28.049Z,30.23
2022-09-10T00:21:45.013Z,31.08
2022-09-10T00:25:08.106Z,32.48
2022-09-10T00:28:22.776Z,29.45
2022-09-10T00:31:40.712Z,29.40
2022-09-10T00:34:57.378Z,31.30
2022-09-10T00:38:15.259Z,32.30
2022-09-10T00:41:34.259Z,31.28
2022-09-10T00:48:27.592Z,30.00
2022-09-10T00:51:45.338Z,29.80
2022-09-10T00:55:01.545Z,27.75
2022-09-10T00:58:21.004Z,30.53
2022-09-10T01:01:37.771Z,34.83
2022-09-10T01:04:55.597Z,35.85
2022-09-10T01:08:12.816Z,33.88
2022-09-10T01:11:51.587Z,32.73
2022-09-10T01:15:21.808Z,27.75
2022-09-10T01:18:45.867Z,34.78
2022-09-10T01:22:08.779Z,33.55
2022-09-10T01:25:31.205Z,33.35
2022-09-10T01:28:52.035Z,33.43
2022-09-10T01:32:15.519Z,31.00
2022-09-10T01:35:41.826Z,30.20
2022-09-10T01:38:59.879Z,31.65
2022-09-10T01:42:16.917Z,30.30
2022-09-10T01:45:34.299Z,32.13
2022-09-10T01:49:16.633Z,32.50
2022-09-10T01:52:39.201Z,32.50
2022-09-10T01:56:04.527Z,32.20
2022-09-10T01:59:29.892Z,30.33
2022-09-10T02:02:52.041Z,32.18
2022-09-10T02:06:11.482Z,31.55
2022-09-10T02:09:28.603Z,31.33
2022-09-10T02:12:46.187Z,32.98
2022-09-10T02:16:27.102Z,34.25
2022-09-10T02:19:43.473Z,34.98
2022-09-10T02:23:04.319Z,31.18
2022-09-10T02:26:21.593Z,35.75
2022-09-10T02:29:39.360Z,36.05
2022-09-10T02:32:55.802Z,35.15
2022-09-10T02:36:15.522Z,33.63
2022-09-10T02:39:32.312Z,33.93
2022-09-10T02:42:49.165Z,37.75
2022-09-10T02:46:08.086Z,41.58
2022-09-10T02:49:25.518Z,42.73
2022-09-10T02:52:41.869Z,44.75
2022-09-10T02:55:59.801Z,43.58
2022-09-10T02:59:16.400Z,47.93
2022-09-10T03:02:33.490Z,42.75
2022-09-10T03:05:50.670Z,46.55
2022-09-10T03:09:07.616Z,45.38
2022-09-10T03:12:24.568Z,46.33
2022-09-10T03:15:41.115Z,46.95
2022-09-10T03:18:57.555Z,45.30
2022-09-10T03:22:14.227Z,48.38
2022-09-10T03:25:31.143Z,45.58
2022-09-10T03:28:49.336Z,49.20
2022-09-10T03:32:07.840Z,47.93
2022-09-10T03:35:24.430Z,48.03
2022-09-10T03:38:41.329Z,48.53
2022-09-10T03:41:57.699Z,47.13
2022-09-10T03:45:18.195Z,51.30
2022-09-10T03:48:35.417Z,44.68
2022-09-10T03:51:52.287Z,48.23
2022-09-10T03:55:09.698Z,45.80
2022-09-10T03:58:29.365Z,45.95
2022-09-10T04:01:46.616Z,45.05
2022-09-10T04:05:03.328Z,44.98
2022-09-10T04:08:21.275Z,41.25
2022-09-10T04:11:40.811Z,40.70
2022-09-10T04:14:57.807Z,42.45
2022-09-10T04:18:17.095Z,47.23
2022-09-10T04:21:35.144Z,43.60
2022-09-10T04:24:52.199Z,44.58
2022-09-10T04:28:10.230Z,41.95
2022-09-10T04:31:27.124Z,42.63
2022-09-10T04:34:45.473Z,39.08
2022-09-10T04:38:02.920Z,40.88
2022-09-10T04:41:20.300Z,36.88
2022-09-10T04:44:37.596Z,37.05
2022-09-10T04:47:54.959Z,37.70
2022-09-10T04:51:17.547Z,37.13
2022-09-10T04:54:34.442Z,31.63
2022-09-10T04:57:50.876Z,37.18
2022-09-10T05:01:08.288Z,35.53
2022-09-10T05:04:24.726Z,36.53
2022-09-10T05:07:41.556Z,36.30
2022-09-10T05:10:58.019Z,34.03
2022-09-10T05:14:14.905Z,32.08
2022-09-10T05:17:31.869Z,34.75
2022-09-10T05:20:51.236Z,33.93
2022-09-10T05:24:08.727Z,32.80
2022-09-10T05:27:25.020Z,32.63
2022-09-10T05:30:41.679Z,35.15
2022-09-10T05:34:01.890Z,33.57
2022-09-10T05:37:19.483Z,31.53
2022-09-10T05:40:35.634Z,34.35
2022-09-10T05:43:52.406Z,30.90
2022-09-10T05:47:09.699Z,30.70
2022-09-10T05:50:27.599Z,35.30
2022-09-10T05:53:44.919Z,33.50
2022-09-10T05:57:02.297Z,34.43
2022-09-10T06:00:21.312Z,32.85
2022-09-10T06:03:44.037Z,35.13
2022-09-10T06:07:01.202Z,33.45
2022-09-10T06:10:18.955Z,33.63
2022-09-10T06:13:36.611Z,33.43
2022-09-10T06:16:55.395Z,34.78
2022-09-10T06:20:16.459Z,34.25
2022-09-10T06:23:34.815Z,29.78
2022-09-10T06:26:51.181Z,32.55
2022-09-10T06:30:07.629Z,34.70
2022-09-10T06:33:28.144Z,35.65
2022-09-10T06:36:44.535Z,32.35
2022-09-10T06:40:00.556Z,31.23
2022-09-10T06:43:18.303Z,32.73
2022-09-10T06:47:16.067Z,35.03
2022-09-10T06:50:00.920Z,34.73
2022-09-10T06:53:18.936Z,35.68
2022-09-10T06:56:42.370Z,36.18
2022-09-10T07:00:02.180Z,38.30
2022-09-10T07:03:20.057Z,38.18
2022-09-10T07:06:40.051Z,36.90
2022-09-10T07:10:04.734Z,37.60
2022-09-10T07:13:21.765Z,35.38
2022-09-10T07:16:40.892Z,39.15
2022-09-10T07:19:57.963Z,36.13
2022-09-10T07:23:16.182Z,36.03
2022-09-10T07:26:32.987Z,34.88
2022-09-10T07:29:52.797Z,33.05
2022-09-10T07:33:11.874Z,31.05
2022-09-10T07:36:35.342Z,31.68
2022-09-10T07:40:12.651Z,32.23
2022-09-10T07:46:57.297Z,39.50
2022-09-10T07:50:17.050Z,42.05
2022-09-10T07:56:49.235Z,39.03
2022-09-10T08:00:06.136Z,40.60
2022-09-10T08:03:24.586Z,42.05
2022-09-10T08:06:41.222Z,41.10
2022-09-10T08:09:58.295Z,40.23
2022-09-10T08:13:15.643Z,43.55
2022-09-10T08:16:33.917Z,40.88
2022-09-10T08:19:52.020Z,37.68
2022-09-10T08:23:08.934Z,35.10
2022-09-10T08:26:26.948Z,34.83
2022-09-10T08:29:45.142Z,35.03
2022-09-10T08:33:02.860Z,33.25
2022-09-10T08:36:22.578Z,33.95
2022-09-10T08:39:39.214Z,34.33
2022-09-10T08:42:59.195Z,37.18
2022-09-10T08:46:24.253Z,32.65
2022-09-10T08:49:48.125Z,30.13
2022-09-10T08:53:12.682Z,30.40
2022-09-10T08:56:34.228Z,32.33
2022-09-10T08:59:54.075Z,29.80
2022-09-10T09:03:16.884Z,29.38
2022-09-10T09:06:40.383Z,33.28
2022-09-10T09:10:00.209Z,28.60
2022-09-10T09:13:35.933Z,25.60
2022-09-10T09:17:29.979Z,23.85
2022-09-10T09:20:54.548Z,19.73
2022-09-10T09:24:17.354Z,19.78
2022-09-10T09:27:40.132Z,19.90
2022-09-10T09:31:00.038Z,20.40
2022-09-10T09:34:23.988Z,16.58
2022-09-10T09:37:56.079Z,15.20
2022-09-10T09:41:27.249Z,14.00
2022-09-10T09:44:56.892Z,14.60
2022-09-10T09:48:12.740Z,12.03
2022-09-10T09:51:31.460Z,11.58
2022-09-10T09:58:43.530Z,9.65
2022-09-10T10:02:04.788Z,10.87
2022-09-10T10:05:28.857Z,9.45
2022-09-10T10:08:48.999Z,9.98
2022-09-10T10:12:08.064Z,9.68
2022-09-10T10:15:42.674Z,11.25
2022-09-10T10:18:59.633Z,9.43
2022-09-10T10:22:36.385Z,9.78
2022-09-10T10:26:06.901Z,8.07
2022-09-10T10:29:29.693Z,7.60
2022-09-10T10:32:58.442Z,7.43
2022-09-10T10:36:24.502Z,6.40
2022-09-10T10:39:56.136Z,5.93
2022-09-10T10:43:21.509Z,6.40
2022-09-10T10:46:43.707Z,6.65
2022-09-10T10:50:07.542Z,5.48
2022-09-10T10:53:49.392Z,4.30
2022-09-10T10:57:31.692Z,4.45
2022-09-10T11:00:52.190Z,4.13
2022-09-10T11:04:17.247Z,3.68
2022-09-10T11:07:40.939Z,3.43
2022-09-10T11:11:01.552Z,3.60
2022-09-10T11:14:27.025Z,3.35
2022-09-10T11:17:48.004Z,3.20
2022-09-10T11:21:13.749Z,9.13
2022-09-10T11:24:34.801Z,6.70
2022-09-10T11:27:55.676Z,4.85
2022-09-10T11:31:18.370Z,4.70
2022-09-10T11:35:12.125Z,4.25
2022-09-10T11:38:36.814Z,4.30
2022-09-10T11:42:09.699Z,4.70
2022-09-10T11:45:39.544Z,4.68
2022-09-10T11:49:04.379Z,4.15
2022-09-10T11:52:26.923Z,5.50
2022-09-10T11:56:02.179Z,4.65
2022-09-10T11:59:31.857Z,5.35
2022-09-10T12:03:41.559Z,3.70
2022-09-10T12:07:11.299Z,2.78
2022-09-10T12:10:36.377Z,2.65
2022-09-10T12:13:56.239Z,4.10
2022-09-10T12:17:18.286Z,4.60
2022-09-10T12:20:45.547Z,3.00
2022-09-10T12:24:02.970Z,8.43
2022-09-10T12:27:28.090Z,3.53
2022-09-10T12:31:10.739Z,6.20
2022-09-10T12:34:29.647Z,3.70
2022-09-10T12:37:54.775Z,3.23
2022-09-10T12:41:15.587Z,2.20
2022-09-10T12:45:02.240Z,2.35
2022-09-10T12:48:27.080Z,2.40
2022-09-10T12:51:52.264Z,2.13
2022-09-10T12:55:13.343Z,5.13
2022-09-10T12:58:38.641Z,3.98
2022-09-10T13:02:01.425Z,4.90
2022-09-10T13:05:35.598Z,3.38
2022-09-10T13:08:57.613Z,4.90
2022-09-10T13:12:23.907Z,2.25
2022-09-10T13:15:44.159Z,2.65
2022-09-10T13:19:14.259Z,2.10
2022-09-10T13:23:07.170Z,3.08
2022-09-10T13:26:57.966Z,4.23
2022-09-10T13:30:26.781Z,5.93
2022-09-10T13:33:50.013Z,5.85
2022-09-10T13:37:42.120Z,4.60
2022-09-10T13:41:17.379Z,5.23
2022-09-10T13:44:46.171Z,4.78
2022-09-10T13:48:09.585Z,4.38
2022-09-10T13:51:34.146Z,3.95
2022-09-10T13:54:57.317Z,4.58
2022-09-10T13:58:20.872Z,7.23
2022-09-10T14:02:01.502Z,23.23
2022-09-10T14:05:45.155Z,7.23
2022-09-10T14:09:10.932Z,4.38
2022-09-10T14:12:33.992Z,3.40
2022-09-10T14:15:51.801Z,4.83
2022-09-10T14:19:11.919Z,5.95
2022-09-10T14:22:31.895Z,4.10
2022-09-10T14:25:51.046Z,4.68
2022-09-10T14:29:25.286Z,4.30
2022-09-10T14:32:47.822Z,4.15
2022-09-10T14:36:22.642Z,3.90
2022-09-10T14:39:40.156Z,5.40
2022-09-10T14:43:20.712Z,3.75
2022-09-10T14:47:06.813Z,4.88
2022-09-10T14:50:43.330Z,3.35
2022-09-10T14:54:03.681Z,4.05
2022-09-10T14:57:24.184Z,3.98
2022-09-10T15:00:48.838Z,3.58
2022-09-10T15:04:05.218Z,3.43
2022-09-10T15:07:21.531Z,4.95
2022-09-10T15:10:41.214Z,5.78
2022-09-10T15:14:02.113Z,4.88
2022-09-10T15:17:25.666Z,2.85
2022-09-10T15:20:44.133Z,40.10
2022-09-10T15:24:05.322Z,13.35
2022-09-10T15:27:31.602Z,5.85
2022-09-10T15:30:49.385Z,4.55
2022-09-10T15:34:05.508Z,2.75
2022-09-10T15:37:25.117Z,3.30
2022-09-10T15:40:41.322Z,4.08
2022-09-10T15:44:10.325Z,2.88
2022-09-10T15:47:28.697Z,5.28
2022-09-10T15:50:52.639Z,5.05
2022-09-10T15:54:12.357Z,6.15
2022-09-10T15:57:29.233Z,4.23
2022-09-10T16:00:48.974Z,5.40
2022-09-10T16:04:11.313Z,4.30
2022-09-10T16:07:28.781Z,4.58
2022-09-10T16:10:49.110Z,4.38
2022-09-10T16:14:07.844Z,4.78
2022-09-10T16:17:24.332Z,5.93
2022-09-10T16:20:41.189Z,4.58
2022-09-10T16:24:01.692Z,4.98
2022-09-10T16:27:18.194Z,5.78
2022-09-10T16:30:35.384Z,6.03
2022-09-10T16:34:04.377Z,5.23
2022-09-10T16:37:20.628Z,6.65
2022-09-10T16:40:37.195Z,4.48
2022-09-10T16:43:53.612Z,5.60
2022-09-10T16:47:19.920Z,5.00
2022-09-10T16:50:36.349Z,5.73
2022-09-10T16:53:56.735Z,6.78
2022-09-10T16:57:20.522Z,6.00
2022-09-10T17:00:43.853Z,9.53
2022-09-10T17:04:13.725Z,7.60
2022-09-10T17:07:31.746Z,5.78
2022-09-10T17:10:51.084Z,5.10
2022-09-10T17:14:09.043Z,5.83
2022-09-10T17:20:49.084Z,6.23
2022-09-10T17:24:07.856Z,6.40
2022-09-10T17:27:25.865Z,6.83
2022-09-10T17:30:48.062Z,8.05
2022-09-10T17:34:04.600Z,6.58
2022-09-10T17:37:24.346Z,7.10
2022-09-10T17:40:40.598Z,6.48
2022-09-10T17:43:58.022Z,7.18
2022-09-10T17:47:19.421Z,7.63
2022-09-10T17:50:38.762Z,9.50
2022-09-10T17:54:01.624Z,6.45
2022-09-10T17:57:18.762Z,6.43
2022-09-10T18:00:35.519Z,9.60
2022-09-10T18:03:51.959Z,2.98
2022-09-10T18:07:08.071Z,6.28
2022-09-10T18:10:24.793Z,3.60
2022-09-10T18:13:42.172Z,3.95
2022-09-10T18:17:02.137Z,5.40
2022-09-10T18:20:23.565Z,4.73
2022-09-10T18:23:44.131Z,4.25
2022-09-10T18:27:05.453Z,3.38
2022-09-10T18:30:22.845Z,5.03
2022-09-10T18:33:46.551Z,5.05
2022-09-10T18:37:05.929Z,4.45
2022-09-10T18:40:26.027Z,6.75
2022-09-10T18:43:53.976Z,4.75
2022-09-10T18:47:34.310Z,4.80
2022-09-10T18:50:34.829Z,3.30
2022-09-10T18:53:57.219Z,3.80
2022-09-10T18:57:14.085Z,3.30
2022-09-10T19:04:20.969Z,2.18
2022-09-10T19:07:41.754Z,5.15
2022-09-10T19:11:09.748Z,5.18
2022-09-10T19:14:31.737Z,2.93
2022-09-10T19:17:56.297Z,2.90
2022-09-10T19:21:14.315Z,4.10
2022-09-10T19:24:56.532Z,3.23
2022-09-10T19:27:49.654Z,2.35
2022-09-10T19:31:18.803Z,4.10
2022-09-10T19:34:36.471Z,4.10
2022-09-10T19:37:53.012Z,3.40
2022-09-10T19:41:21.660Z,2.93
2022-09-10T19:44:39.503Z,3.85
2022-09-10T19:47:56.698Z,3.53
2022-09-10T19:51:16.742Z,3.70
2022-09-10T19:54:33.857Z,3.25
2022-09-10T19:57:50.141Z,4.75
2022-09-10T20:01:06.534Z,4.48
2022-09-10T20:04:26.357Z,3.38
2022-09-10T20:07:42.794Z,2.88
2022-09-10T20:11:03.131Z,2.50
2022-09-10T20:14:21.869Z,3.05
2022-09-10T20:17:39.140Z,3.73
2022-09-10T20:20:55.913Z,3.68
2022-09-10T20:24:13.977Z,3.80
2022-09-10T20:27:30.415Z,4.10
2022-09-10T20:30:50.199Z,5.38
2022-09-10T20:34:09.415Z,5.28
2022-09-10T20:37:25.806Z,3.33
2022-09-10T20:40:43.181Z,3.93
2022-09-10T20:44:02.482Z,3.10
2022-09-10T20:47:19.238Z,4.10
2022-09-10T20:50:35.654Z,5.18
2022-09-10T20:53:53.000Z,3.73
2022-09-10T20:57:09.764Z,5.18
2022-09-10T21:00:27.402Z,5.60
2022-09-10T21:03:46.224Z,4.90
2022-09-10T21:07:02.640Z,4.48
2022-09-10T21:10:19.844Z,5.43
2022-09-10T21:13:36.986Z,5.48
2022-09-10T21:16:53.903Z,5.10
2022-09-10T21:20:13.349Z,6.53
2022-09-10T21:23:29.881Z,8.80
2022-09-10T21:26:48.825Z,6.48
2022-09-10T21:30:05.058Z,6.55
2022-09-10T21:33:21.379Z,8.08
2022-09-10T21:36:39.210Z,8.10
2022-09-10T21:39:55.585Z,7.43
2022-09-10T21:43:11.714Z,6.78
2022-09-10T21:46:28.347Z,6.73
2022-09-10T21:49:45.715Z,8.03
2022-09-10T21:53:02.336Z,6.38
2022-09-10T21:56:22.630Z,6.78
2022-09-10T21:59:38.855Z,5.23
2022-09-10T22:02:55.567Z,6.15
2022-09-10T22:06:19.226Z,5.95
2022-09-10T22:09:35.285Z,6.80
2022-09-10T22:12:51.868Z,6.35
2022-09-10T22:16:09.219Z,5.23
2022-09-10T22:19:28.259Z,5.45
2022-09-10T22:22:45.560Z,6.68
2022-09-10T22:26:04.959Z,4.98
2022-09-10T22:29:23.535Z,6.53
2022-09-10T22:32:41.136Z,5.15
2022-09-10T22:35:57.800Z,6.03
2022-09-10T22:39:17.506Z,4.43
2022-09-10T22:42:33.558Z,4.98
2022-09-10T22:45:50.510Z,5.80
2022-09-10T22:49:07.995Z,4.58
2022-09-10T22:52:25.196Z,4.93
2022-09-10T22:55:42.914Z,5.30
2022-09-10T22:59:00.667Z,4.45
2022-09-10T23:02:16.936Z,6.03
2022-09-10T23:05:33.043Z,5.85
2022-09-10T23:08:51.650Z,5.28
2022-09-10T23:12:08.994Z,6.15
2022-09-10T23:15:25.297Z,5.53
2022-09-10T23:18:41.596Z,7.20
2022-09-10T23:22:00.606Z,4.98
2022-09-10T23:25:20.793Z,4.98
2022-09-10T23:28:37.689Z,6.55
2022-09-10T23:31:55.793Z,6.95
2022-09-10T23:35:13.480Z,8.15
2022-09-10T23:38:31.749Z,7.13
2022-09-10T23:45:02.671Z,7.65
2022-09-10T23:48:19.129Z,5.85
2022-09-10T23:51:36.337Z,9.38
2022-09-10T23:54:52.434Z,7.45
2022-09-10T23:58:08.496Z,9.15
